Gifford, Iowa
Current Conditions -  °F | °C
As of 11:53 AM on Sunday 25 Jan 2015 (Local Time) from KMIW Reporting Station
Overcast Overcast  
Wind Chill: 18°   Ceiling: 1500
Heat Index: 30°   Visibility: 10mi
Dew Point: 25°   Wind: 18mph
Humidity: 82%   Direction: 40°NE
Pressure: 29.91"   Gusts: NA
Location:  42.29°N, 93.09°W
Report Text: KMIW 251753Z AUTO 04016KT 10SM BKN015 OVC050 M01/M04 A2991 RMK AO2 PK WND 03026/1726 SLP137 60004 T10111039 10017 21011 51046
Loading
Personal Weather Stations






























Interactive Weather Map New forecast layout! Learn more

10-Day Weather Forecast

Advertisements
Track Severe Weather on mobile